createdAt,value
2018-01-04T00:00:12.331Z,993.98
2018-01-04T00:01:12.733Z,993.95
2018-01-04T00:02:12.301Z,993.97
2018-01-04T00:03:13.084Z,994.01
2018-01-04T00:04:13.630Z,993.99
2018-01-04T00:05:13.364Z,993.96
2018-01-04T00:06:12.720Z,993.99
2018-01-04T00:07:12.229Z,994.02
2018-01-04T00:08:13.057Z,994.11
2018-01-04T00:09:12.391Z,994.06
2018-01-04T00:10:12.955Z,994.15
2018-01-04T00:11:12.579Z,994.07
2018-01-04T00:12:12.900Z,994.02
2018-01-04T00:13:12.497Z,994.02
2018-01-04T00:14:13.217Z,994.11
2018-01-04T00:15:13.278Z,994
2018-01-04T00:16:12.850Z,994.12
2018-01-04T00:17:12.567Z,994.02
2018-01-04T00:18:12.601Z,994.05
2018-01-04T00:19:13.425Z,994.08
2018-01-04T00:20:13.204Z,994.12
2018-01-04T00:21:12.291Z,994.07
2018-01-04T00:22:12.715Z,994.09
2018-01-04T00:23:12.594Z,994.09
2018-01-04T00:24:13.269Z,994.06
2018-01-04T00:25:13.041Z,994.06
2018-01-04T00:26:12.591Z,994.08
2018-01-04T00:27:12.264Z,994.05
2018-01-04T00:28:12.750Z,994.02
2018-01-04T00:29:13.224Z,993.98
2018-01-04T00:30:13.175Z,994
2018-01-04T00:31:13.140Z,993.91
2018-01-04T00:32:13.303Z,994.02
2018-01-04T00:33:12.857Z,994.06
2018-01-04T00:34:12.586Z,993.98
2018-01-04T00:35:13.099Z,993.98
2018-01-04T00:36:12.840Z,993.96
2018-01-04T00:37:12.630Z,994.02
2018-01-04T00:38:12.774Z,993.9
2018-01-04T00:39:12.996Z,993.97
2018-01-04T00:40:12.584Z,993.99
2018-01-04T00:41:13.072Z,993.97
2018-01-04T00:42:12.831Z,993.99
2018-01-04T00:43:12.615Z,993.92
2018-01-04T00:44:12.401Z,993.99
2018-01-04T00:45:13.017Z,993.99
2018-01-04T00:46:12.359Z,993.99
2018-01-04T00:47:12.739Z,993.94
2018-01-04T00:48:12.616Z,993.98
2018-01-04T00:49:12.975Z,994.01
2018-01-04T00:50:12.706Z,994.01
2018-01-04T00:51:13.268Z,993.98
2018-01-04T00:52:12.883Z,993.98
2018-01-04T00:53:12.478Z,993.94
2018-01-04T00:54:12.121Z,994.03
2018-01-04T00:55:12.449Z,994.03
2018-01-04T00:56:12.966Z,994.05
2018-01-04T00:57:12.382Z,994.01
2018-01-04T00:58:13.016Z,994.05
2018-01-04T00:59:12.563Z,993.96
2018-01-04T01:00:12.802Z,994.01
2018-01-04T01:01:12.012Z,994.02
2018-01-04T01:02:12.542Z,994.04
2018-01-04T01:03:11.810Z,994.03
2018-01-04T01:04:12.955Z,994.1
2018-01-04T01:05:12.839Z,994
2018-01-04T01:06:13.064Z,994.05
2018-01-04T01:07:12.453Z,994.16
2018-01-04T01:08:12.882Z,994.16
2018-01-04T01:09:12.360Z,994.18
2018-01-04T01:10:12.809Z,994.21
2018-01-04T01:11:12.476Z,994.17
2018-01-04T01:12:12.257Z,994.08
2018-01-04T01:13:12.671Z,994.04
2018-01-04T01:14:12.205Z,994.02
2018-01-04T01:15:13.032Z,994.1
2018-01-04T01:16:12.949Z,994.1
2018-01-04T01:17:12.211Z,994.09
2018-01-04T01:18:12.685Z,994.07
2018-01-04T01:19:12.780Z,994.11
2018-01-04T01:20:12.366Z,994.09
2018-01-04T01:21:12.063Z,994.19
2018-01-04T01:22:12.751Z,994.23
2018-01-04T01:23:12.331Z,994.22
2018-01-04T01:24:12.734Z,994.21
2018-01-04T01:25:12.465Z,994.13
2018-01-04T01:26:12.057Z,994.13
2018-01-04T01:27:12.865Z,994.17
2018-01-04T01:28:12.470Z,994.12
2018-01-04T01:29:12.122Z,994.14
2018-01-04T01:30:12.890Z,994.15
2018-01-04T01:31:12.679Z,994.22
2018-01-04T01:32:13.071Z,994.2
2018-01-04T01:33:13.409Z,994.2
2018-01-04T01:34:12.688Z,994.2
2018-01-04T01:35:13.454Z,994.18
2018-01-04T01:36:12.846Z,994.2
2018-01-04T01:37:13.040Z,994.15
2018-01-04T01:38:12.842Z,994.11
2018-01-04T01:39:13.594Z,994
2018-01-04T01:40:13.397Z,993.97
2018-01-04T01:41:12.749Z,993.95
2018-01-04T01:42:13.732Z,993.94
2018-01-04T01:43:13.738Z,993.91
2018-01-04T01:44:13.325Z,993.92
2018-01-04T01:45:13.956Z,993.88
2018-01-04T01:46:12.593Z,993.83
2018-01-04T01:47:12.958Z,993.9
2018-01-04T01:48:12.914Z,993.86
2018-01-04T01:49:13.636Z,993.81
2018-01-04T01:50:12.931Z,993.8
2018-01-04T01:51:13.537Z,993.72
2018-01-04T01:52:13.033Z,993.7
2018-01-04T01:53:12.783Z,993.72
2018-01-04T01:54:12.797Z,993.72
2018-01-04T01:55:13.121Z,993.7
2018-01-04T01:56:12.950Z,993.6
2018-01-04T01:57:13.518Z,993.64
2018-01-04T01:58:13.089Z,993.66
2018-01-04T01:59:12.928Z,993.71
2018-01-04T02:00:13.537Z,993.7
2018-01-04T02:01:13.337Z,993.7
2018-01-04T02:02:12.742Z,993.61
2018-01-04T02:03:12.886Z,993.65
2018-01-04T02:04:13.288Z,993.6
2018-01-04T02:05:12.507Z,993.63
2018-01-04T02:06:12.940Z,993.6
2018-01-04T02:07:13.148Z,993.58
2018-01-04T02:08:12.579Z,993.57
2018-01-04T02:09:13.364Z,993.52
2018-01-04T02:10:13.716Z,993.58
2018-01-04T02:11:13.297Z,993.59
2018-01-04T02:12:13.024Z,993.65
2018-01-04T02:13:12.561Z,993.6
2018-01-04T02:14:13.121Z,993.67
2018-01-04T02:15:12.585Z,993.64
2018-01-04T02:16:13.001Z,993.63
2018-01-04T02:17:13.052Z,993.71
2018-01-04T02:18:12.868Z,993.67
2018-01-04T02:19:13.183Z,993.69
2018-01-04T02:20:13.649Z,993.62
2018-01-04T02:21:12.443Z,993.56
2018-01-04T02:22:13.006Z,993.53
2018-01-04T02:23:12.408Z,993.52
2018-01-04T02:24:13.151Z,993.45
2018-01-04T02:25:12.722Z,993.43
2018-01-04T02:26:13.407Z,993.43
2018-01-04T02:27:12.852Z,993.44
2018-01-04T02:28:12.952Z,993.38
2018-01-04T02:29:12.716Z,993.39
2018-01-04T02:30:12.484Z,993.41
2018-01-04T02:31:12.786Z,993.45
2018-01-04T02:32:12.717Z,993.44
2018-01-04T02:33:13.487Z,993.5
2018-01-04T02:34:13.733Z,993.45
2018-01-04T02:35:13.117Z,993.38
2018-01-04T02:36:12.415Z,993.39
2018-01-04T02:37:13.121Z,993.38
2018-01-04T02:38:12.998Z,993.37
2018-01-04T02:39:13.480Z,993.37
2018-01-04T02:40:13.332Z,993.41
2018-01-04T02:41:13.538Z,993.42
2018-01-04T02:42:12.755Z,993.46
2018-01-04T02:43:12.784Z,993.44
2018-01-04T02:44:13.244Z,993.39
2018-01-04T02:45:12.485Z,993.44
2018-01-04T02:46:12.649Z,993.38
2018-01-04T02:47:13.184Z,993.41
2018-01-04T02:48:12.511Z,993.37
2018-01-04T02:49:12.696Z,993.34
2018-01-04T02:50:12.868Z,993.37
2018-01-04T02:51:13.200Z,993.38
2018-01-04T02:52:12.628Z,993.39
2018-01-04T02:53:13.032Z,993.41
2018-01-04T02:54:13.335Z,993.43
2018-01-04T02:55:12.559Z,993.46
2018-01-04T02:56:12.869Z,993.47
2018-01-04T02:57:13.017Z,993.48
2018-01-04T02:58:13.116Z,993.49
2018-01-04T02:59:13.343Z,993.56
2018-01-04T03:00:12.518Z,993.49
2018-01-04T03:01:12.467Z,993.49
2018-01-04T03:02:12.790Z,993.42
2018-01-04T03:03:13.125Z,993.38
2018-01-04T03:04:13.453Z,993.36
2018-01-04T03:05:13.665Z,993.42
2018-01-04T03:06:13.057Z,993.42
2018-01-04T03:07:13.408Z,993.42
2018-01-04T03:08:13.774Z,993.39
2018-01-04T03:09:13.079Z,993.43
2018-01-04T03:10:13.392Z,993.41
2018-01-04T03:11:14.024Z,993.38
2018-01-04T03:12:13.494Z,993.39
2018-01-04T03:13:12.955Z,993.38
2018-01-04T03:14:13.266Z,993.38
2018-01-04T03:15:13.310Z,993.37
2018-01-04T03:16:13.627Z,993.42
2018-01-04T03:17:12.839Z,993.37
2018-01-04T03:18:13.097Z,993.36
2018-01-04T03:19:13.361Z,993.34
2018-01-04T03:20:13.764Z,993.37
2018-01-04T03:21:13.087Z,993.31
2018-01-04T03:22:13.397Z,993.27
2018-01-04T03:23:13.588Z,993.2
2018-01-04T03:24:12.774Z,993.19
2018-01-04T03:25:13.018Z,993.22
2018-01-04T03:26:12.991Z,993.26
2018-01-04T03:27:13.223Z,993.27
2018-01-04T03:28:13.362Z,993.21
2018-01-04T03:29:13.364Z,993.15
2018-01-04T03:30:13.376Z,993.09
2018-01-04T03:31:13.565Z,993.07
2018-01-04T03:32:12.857Z,993.06
2018-01-04T03:33:12.106Z,993.05
2018-01-04T03:34:12.227Z,993.05
2018-01-04T03:35:12.568Z,993.09
2018-01-04T03:36:12.148Z,993.08
2018-01-04T03:37:12.556Z,993.05
2018-01-04T03:38:11.813Z,993.04
2018-01-04T03:39:12.045Z,993
2018-01-04T03:40:12.253Z,993.05
2018-01-04T03:41:12.536Z,992.99
2018-01-04T03:42:12.761Z,992.99
2018-01-04T03:43:12.111Z,993
2018-01-04T03:44:12.257Z,992.99
2018-01-04T03:45:12.549Z,993.07
2018-01-04T03:46:12.078Z,993.05
2018-01-04T03:47:12.445Z,993.03
2018-01-04T03:48:12.648Z,993.03
2018-01-04T03:49:11.868Z,993.02
2018-01-04T03:50:12.077Z,992.97
2018-01-04T03:51:12.163Z,993
2018-01-04T03:52:12.313Z,992.99
2018-01-04T03:53:12.587Z,993.04
2018-01-04T03:54:11.879Z,993.03
2018-01-04T03:55:12.293Z,993.03
2018-01-04T03:56:12.655Z,993.05
2018-01-04T03:57:12.127Z,993
2018-01-04T03:58:12.315Z,993.06
2018-01-04T03:59:12.711Z,993.09
2018-01-04T04:00:12.019Z,993.03
2018-01-04T04:01:12.231Z,992.97
2018-01-04T04:02:12.589Z,993.02
2018-01-04T04:03:12.668Z,992.98
2018-01-04T04:04:13.049Z,993.02
2018-01-04T04:05:13.226Z,993.02
2018-01-04T04:06:13.350Z,993.11
2018-01-04T04:07:12.674Z,993.1
2018-01-04T04:08:13.102Z,993.17
2018-01-04T04:09:13.456Z,993.09
2018-01-04T04:10:12.580Z,993.08
2018-01-04T04:11:12.757Z,993.1
2018-01-04T04:12:12.908Z,993.06
2018-01-04T04:13:13.118Z,993.14
2018-01-04T04:14:13.426Z,993.17
2018-01-04T04:15:12.581Z,993.23
2018-01-04T04:16:12.700Z,993.26
2018-01-04T04:17:12.920Z,993.3
2018-01-04T04:18:13.149Z,993.26
2018-01-04T04:19:12.568Z,993.32
2018-01-04T04:20:12.857Z,993.39
2018-01-04T04:21:13.214Z,993.36
2018-01-04T04:22:12.600Z,993.36
2018-01-04T04:23:12.846Z,993.3
2018-01-04T04:24:13.078Z,993.33
2018-01-04T04:25:13.410Z,993.37
2018-01-04T04:26:12.756Z,993.45
2018-01-04T04:27:12.608Z,993.47
2018-01-04T04:28:12.917Z,993.52
2018-01-04T04:29:13.283Z,993.49
2018-01-04T04:30:13.522Z,993.45
2018-01-04T04:31:12.762Z,993.48
2018-01-04T04:32:13.081Z,993.48
2018-01-04T04:33:13.406Z,993.5
2018-01-04T04:34:12.644Z,993.54
2018-01-04T04:35:12.933Z,993.51
2018-01-04T04:36:13.100Z,993.48
2018-01-04T04:37:13.219Z,993.49
2018-01-04T04:38:12.388Z,993.46
2018-01-04T04:39:12.813Z,993.41
2018-01-04T04:40:13.129Z,993.44
2018-01-04T04:41:12.524Z,993.35
2018-01-04T04:42:12.769Z,993.24
2018-01-04T04:43:12.939Z,993.28
2018-01-04T04:44:14.805Z,993.22
2018-01-04T04:45:13.233Z,993.2
2018-01-04T04:46:12.774Z,993.16
2018-01-04T04:47:13.072Z,993.17
2018-01-04T04:48:12.610Z,993.12
2018-01-04T04:49:12.838Z,993.1
2018-01-04T04:50:13.236Z,993.12
2018-01-04T04:51:12.539Z,993.11
2018-01-04T04:52:13.021Z,993.13
2018-01-04T04:53:12.400Z,993.15
2018-01-04T04:54:12.643Z,993.2
2018-01-04T04:55:12.898Z,993.13
2018-01-04T04:56:13.076Z,993.14
2018-01-04T04:57:12.321Z,993.17
2018-01-04T04:58:12.402Z,993.05
2018-01-04T04:59:12.560Z,993.13
2018-01-04T05:00:12.977Z,993.2
2018-01-04T05:01:12.451Z,993.2
2018-01-04T05:02:12.704Z,993.33
2018-01-04T05:03:13.069Z,993.36
2018-01-04T05:04:13.293Z,993.4
2018-01-04T05:05:12.552Z,993.39
2018-01-04T05:06:12.774Z,993.38
2018-01-04T05:07:13.075Z,993.33
2018-01-04T05:08:12.285Z,993.38
2018-01-04T05:09:12.624Z,993.36
2018-01-04T05:10:12.900Z,993.31
2018-01-04T05:11:13.125Z,993.3
2018-01-04T05:12:12.535Z,993.31
2018-01-04T05:13:12.800Z,993.34
2018-01-04T05:14:13.106Z,993.35
2018-01-04T05:15:12.456Z,993.29
2018-01-04T05:16:12.801Z,993.3
2018-01-04T05:17:13.144Z,993.3
2018-01-04T05:18:12.585Z,993.29
2018-01-04T05:19:13.000Z,993.29
2018-01-04T05:20:12.504Z,993.26
2018-01-04T05:21:13.107Z,993.3
2018-01-04T05:22:12.529Z,993.24
2018-01-04T05:23:13.019Z,993.25
2018-01-04T05:24:12.695Z,993.26
2018-01-04T05:25:13.240Z,993.23
2018-01-04T05:26:12.825Z,993.2
2018-01-04T05:27:12.405Z,993.2
2018-01-04T05:28:12.850Z,993.17
2018-01-04T05:29:12.252Z,993.18
2018-01-04T05:30:12.497Z,993.17
2018-01-04T05:31:12.860Z,993.13
2018-01-04T05:32:13.211Z,993.09
2018-01-04T05:33:12.589Z,993.06
2018-01-04T05:34:12.826Z,993.08
2018-01-04T05:35:12.537Z,993.04
2018-01-04T05:36:12.820Z,993.07
2018-01-04T05:37:13.203Z,992.99
2018-01-04T05:38:12.493Z,992.99
2018-01-04T05:39:12.687Z,992.97
2018-01-04T05:40:12.971Z,993
2018-01-04T05:41:13.140Z,992.99
2018-01-04T05:42:13.241Z,993
2018-01-04T05:43:13.453Z,992.99
2018-01-04T05:44:12.862Z,992.92
2018-01-04T05:45:13.072Z,992.99
2018-01-04T05:46:12.628Z,993.07
2018-01-04T05:47:12.974Z,993.06
2018-01-04T05:48:13.272Z,993.01
2018-01-04T05:49:12.494Z,992.99
2018-01-04T05:50:12.696Z,992.97
2018-01-04T05:51:12.905Z,993
2018-01-04T05:52:13.136Z,993.06
2018-01-04T05:53:13.435Z,993.06
2018-01-04T05:54:13.516Z,993.08
2018-01-04T05:55:12.621Z,993.09
2018-01-04T05:56:13.381Z,993.06
2018-01-04T05:57:12.820Z,993.12
2018-01-04T05:58:13.203Z,993.09
2018-01-04T05:59:12.727Z,993.14
2018-01-04T06:00:13.001Z,993.04
2018-01-04T06:01:13.402Z,993.12
2018-01-04T06:02:12.726Z,993.03
2018-01-04T06:03:13.155Z,992.98
2018-01-04T06:04:13.406Z,992.95
2018-01-04T06:05:12.707Z,992.92
2018-01-04T06:06:12.911Z,992.96
2018-01-04T06:07:13.232Z,993.06
2018-01-04T06:08:13.650Z,993.14
2018-01-04T06:09:13.041Z,993.19
2018-01-04T06:10:13.381Z,993.14
2018-01-04T06:11:13.626Z,993.16
2018-01-04T06:12:12.841Z,993.21
2018-01-04T06:13:12.985Z,993.22
2018-01-04T06:14:13.360Z,993.25
2018-01-04T06:15:12.711Z,993.27
2018-01-04T06:16:13.117Z,993.25
2018-01-04T06:17:13.544Z,993.27
2018-01-04T06:18:13.274Z,993.26
2018-01-04T06:19:12.711Z,993.34
2018-01-04T06:20:13.126Z,993.33
2018-01-04T06:21:13.481Z,993.37
2018-01-04T06:22:12.750Z,993.36
2018-01-04T06:23:13.225Z,993.38
2018-01-04T06:24:13.625Z,993.41
2018-01-04T06:25:12.810Z,993.34
2018-01-04T06:26:13.043Z,993.27
2018-01-04T06:27:13.397Z,993.26
2018-01-04T06:28:13.663Z,993.22
2018-01-04T06:29:13.370Z,993.21
2018-01-04T06:30:12.977Z,993.25
2018-01-04T06:31:12.922Z,993.21
2018-01-04T06:32:13.136Z,993.18
2018-01-04T06:33:13.468Z,993.1
2018-01-04T06:34:12.668Z,993.08
2018-01-04T06:35:12.979Z,993.03
2018-01-04T06:36:12.338Z,993.01
2018-01-04T06:37:12.757Z,993.01
2018-01-04T06:38:12.212Z,993.05
2018-01-04T06:39:12.944Z,992.98
2018-01-04T06:40:12.471Z,992.98
2018-01-04T06:41:12.822Z,992.89
2018-01-04T06:42:12.212Z,992.83
2018-01-04T06:43:12.604Z,992.83
2018-01-04T06:44:12.839Z,992.82
2018-01-04T06:45:12.167Z,992.83
2018-01-04T06:46:12.292Z,992.88
2018-01-04T06:47:13.086Z,992.86
2018-01-04T06:48:12.547Z,992.86
2018-01-04T06:49:11.850Z,992.83
2018-01-04T06:50:12.083Z,992.87
2018-01-04T06:51:12.655Z,992.85
2018-01-04T06:52:12.143Z,992.84
2018-01-04T06:53:12.610Z,992.83
2018-01-04T06:54:12.155Z,992.87
2018-01-04T06:55:12.672Z,992.89
2018-01-04T06:56:12.088Z,992.87
2018-01-04T06:57:12.337Z,992.8
2018-01-04T06:58:12.865Z,992.83
2018-01-04T06:59:12.194Z,992.75
2018-01-04T07:00:12.286Z,992.65
2018-01-04T07:01:12.763Z,992.66
2018-01-04T07:02:12.474Z,992.7
2018-01-04T07:03:12.546Z,992.74
2018-01-04T07:04:12.905Z,992.72
2018-01-04T07:05:12.411Z,992.77
2018-01-04T07:06:12.821Z,992.7
2018-01-04T07:07:12.033Z,992.79
2018-01-04T07:08:12.170Z,992.72
2018-01-04T07:09:12.556Z,992.69
2018-01-04T07:10:12.022Z,992.7
2018-01-04T07:11:12.538Z,992.74
2018-01-04T07:12:11.895Z,992.65
2018-01-04T07:13:12.128Z,992.64
2018-01-04T07:14:12.326Z,992.62
2018-01-04T07:15:12.774Z,992.64
2018-01-04T07:16:12.348Z,992.58
2018-01-04T07:17:12.876Z,992.59
2018-01-04T07:18:12.084Z,992.56
2018-01-04T07:19:12.262Z,992.6
2018-01-04T07:20:12.575Z,992.54
2018-01-04T07:21:11.992Z,992.55
2018-01-04T07:22:12.339Z,992.51
2018-01-04T07:23:12.619Z,992.46
2018-01-04T07:24:11.984Z,992.46
2018-01-04T07:25:12.236Z,992.44
2018-01-04T07:26:12.518Z,992.37
2018-01-04T07:27:12.760Z,992.4
2018-01-04T07:28:12.042Z,992.42
2018-01-04T07:29:12.380Z,992.47
2018-01-04T07:30:12.767Z,992.48
2018-01-04T07:31:12.268Z,992.48
2018-01-04T07:32:12.303Z,992.46
2018-01-04T07:33:12.414Z,992.42
2018-01-04T07:34:12.656Z,992.48
2018-01-04T07:35:12.269Z,992.53
2018-01-04T07:36:12.684Z,992.5
2018-01-04T07:37:11.938Z,992.49
2018-01-04T07:38:12.015Z,992.45
2018-01-04T07:39:12.193Z,992.55
2018-01-04T07:40:12.392Z,992.47
2018-01-04T07:41:12.555Z,992.5
2018-01-04T07:42:12.663Z,992.48
2018-01-04T07:43:12.793Z,992.5
2018-01-04T07:44:12.047Z,992.56
2018-01-04T07:45:12.428Z,992.55
2018-01-04T07:46:11.944Z,992.52
2018-01-04T07:47:12.192Z,992.43
2018-01-04T07:48:12.392Z,992.38
2018-01-04T07:49:12.589Z,992.41
2018-01-04T07:50:12.729Z,992.45
2018-01-04T07:51:12.011Z,992.37
2018-01-04T07:52:12.309Z,992.32
2018-01-04T07:53:12.545Z,992.26
2018-01-04T07:54:12.666Z,992.25
2018-01-04T07:55:12.730Z,992.2
2018-01-04T07:56:12.978Z,992.23
2018-01-04T07:57:12.467Z,992.12
2018-01-04T07:58:12.566Z,992.15
2018-01-04T07:59:12.034Z,992.2
2018-01-04T08:00:12.274Z,992.17
2018-01-04T08:01:12.462Z,992.16
2018-01-04T08:02:12.770Z,992.19
2018-01-04T08:03:11.930Z,992.16
2018-01-04T08:04:23.568Z,992.21
2018-01-04T08:05:12.873Z,992.22
2018-01-04T08:06:12.084Z,992.24
2018-01-04T08:07:12.414Z,992.26
2018-01-04T08:08:12.731Z,992.2
2018-01-04T08:09:13.062Z,992.24
2018-01-04T08:10:13.268Z,992.26
2018-01-04T08:11:12.779Z,992.23
2018-01-04T08:12:13.188Z,992.26
2018-01-04T08:13:12.655Z,992.24
2018-01-04T08:14:12.912Z,992.25
2018-01-04T08:15:13.254Z,992.23
2018-01-04T08:16:12.793Z,992.24
2018-01-04T08:17:13.067Z,992.25
2018-01-04T08:18:13.319Z,992.25
2018-01-04T08:19:12.610Z,992.31
2018-01-04T08:20:12.894Z,992.25
2018-01-04T08:21:13.152Z,992.28
2018-01-04T08:22:12.604Z,992.2
2018-01-04T08:23:13.213Z,992.21
2018-01-04T08:24:12.449Z,992.18
2018-01-04T08:25:13.028Z,992.18
2018-01-04T08:26:13.468Z,992.21
2018-01-04T08:27:12.885Z,992.22
2018-01-04T08:28:13.223Z,992.22
2018-01-04T08:29:12.660Z,992.22
2018-01-04T08:30:13.191Z,992.21
2018-01-04T08:31:12.599Z,992.16
2018-01-04T08:32:12.871Z,992.13
2018-01-04T08:33:13.198Z,992.13
2018-01-04T08:34:12.521Z,992.1
2018-01-04T08:35:12.858Z,992.13
2018-01-04T08:36:13.240Z,992.07
2018-01-04T08:37:12.806Z,992.11
2018-01-04T08:38:12.084Z,992.09
2018-01-04T08:39:12.407Z,992.1
2018-01-04T08:40:12.645Z,992.11
2018-01-04T08:41:13.807Z,992.08
2018-01-04T08:42:12.148Z,992.09
2018-01-04T08:43:12.368Z,992.06
2018-01-04T08:44:12.634Z,992.07
2018-01-04T08:45:12.933Z,992.1
2018-01-04T08:46:12.205Z,992.09
2018-01-04T08:47:12.251Z,992.07
2018-01-04T08:48:12.443Z,992.09
2018-01-04T08:49:12.817Z,992.05
2018-01-04T08:50:12.207Z,992.09
2018-01-04T08:51:12.293Z,992.07
2018-01-04T08:52:12.586Z,992.04
2018-01-04T08:53:12.820Z,992.08
2018-01-04T08:54:12.214Z,992.08
2018-01-04T08:55:12.609Z,992.02
2018-01-04T08:56:12.113Z,992.01
2018-01-04T08:57:12.296Z,992.02
2018-01-04T08:58:12.734Z,991.99
2018-01-04T08:59:11.936Z,991.95
2018-01-04T09:00:12.247Z,991.97
2018-01-04T09:01:12.568Z,991.98
2018-01-04T09:02:12.057Z,992.01
2018-01-04T09:03:12.431Z,992.02
2018-01-04T09:04:12.618Z,992.02
2018-01-04T09:05:11.961Z,991.99
2018-01-04T09:06:12.248Z,991.98
2018-01-04T09:24:38.941Z,991.79
2018-01-04T09:25:39.174Z,991.73
2018-01-04T09:26:39.469Z,991.72
2018-01-04T09:28:56.176Z,991.65
2018-01-04T09:29:56.445Z,991.65
2018-01-04T10:45:29.538Z,989.93
2018-01-04T10:46:30.015Z,989.92
2018-01-04T10:47:29.408Z,989.91
2018-01-04T10:48:29.714Z,989.91
2018-01-04T10:49:29.895Z,989.9
2018-01-04T10:50:29.380Z,989.88
2018-01-04T10:51:29.649Z,989.91
2018-01-04T10:52:29.840Z,989.82
2018-01-04T10:53:30.045Z,989.81
2018-01-04T10:54:29.976Z,989.83
2018-01-04T10:55:30.155Z,989.8
2018-01-04T10:56:29.715Z,989.84
2018-01-04T10:57:29.918Z,989.8
2018-01-04T10:58:30.188Z,989.81
2018-01-04T10:59:29.691Z,989.79
2018-01-04T11:00:30.025Z,989.73
2018-01-04T11:01:29.413Z,989.68
2018-01-04T11:02:29.552Z,989.69
2018-01-04T11:03:29.822Z,989.64
2018-01-04T11:04:29.972Z,989.65
2018-01-04T11:05:30.211Z,989.59
2018-01-04T11:06:29.527Z,989.53
2018-01-04T11:07:30.057Z,989.54
2018-01-04T11:08:29.393Z,989.47
2018-01-04T11:09:29.989Z,989.44
2018-01-04T11:10:29.346Z,989.42
2018-01-04T11:11:29.630Z,989.41
2018-01-04T11:12:29.941Z,989.37
2018-01-04T11:13:29.325Z,989.38
2018-01-04T11:14:29.788Z,989.35
2018-01-04T11:15:30.305Z,989.31
2018-01-04T11:16:29.665Z,989.29
2018-01-04T11:17:30.347Z,989.24
2018-01-04T11:18:29.872Z,989.21
2018-01-04T11:19:29.362Z,989.23
2018-01-04T11:20:29.700Z,989.14
2018-01-04T11:21:30.050Z,989.12
2018-01-04T11:22:29.573Z,989.11
2018-01-04T11:23:30.121Z,989.11
2018-01-04T11:24:29.821Z,989.12
2018-01-04T11:25:29.556Z,989.05
2018-01-04T11:26:30.073Z,989.01
2018-01-04T11:27:29.475Z,988.96
2018-01-04T11:28:30.014Z,988.99
2018-01-04T11:29:29.682Z,988.97
2018-01-04T11:30:31.437Z,988.88
2018-01-04T11:31:30.022Z,988.84
2018-01-04T11:32:29.654Z,988.84
2018-01-04T11:33:30.222Z,988.85
2018-01-04T11:34:30.835Z,988.8
2018-01-04T11:35:29.946Z,988.83
2018-01-04T11:36:29.360Z,988.82
2018-01-04T11:37:29.646Z,988.82
2018-01-04T11:38:30.015Z,988.79
2018-01-04T11:39:29.309Z,988.74
2018-01-04T11:40:29.763Z,988.75
2018-01-04T11:41:30.073Z,988.73
2018-01-04T11:42:29.443Z,988.64
2018-01-04T11:43:30.068Z,988.63
2018-01-04T11:44:29.478Z,988.62
2018-01-04T11:45:29.852Z,988.62
2018-01-04T11:46:30.179Z,988.6
2018-01-04T11:47:29.362Z,988.56
2018-01-04T11:48:29.663Z,988.55
2018-01-04T11:49:29.815Z,988.51
2018-01-04T11:50:30.084Z,988.51
2018-01-04T11:51:29.658Z,988.52
2018-01-04T11:52:29.949Z,988.48
2018-01-04T11:53:29.743Z,988.47
2018-01-04T11:54:30.202Z,988.41
2018-01-04T11:55:29.421Z,988.43
2018-01-04T11:56:29.823Z,988.41
2018-01-04T11:57:29.923Z,988.33
2018-01-04T11:58:29.342Z,988.34
2018-01-04T11:59:29.899Z,988.34
2018-01-04T12:00:29.280Z,988.33
2018-01-04T12:01:30.896Z,988.26
2018-01-04T12:02:30.688Z,988.26
2018-01-04T12:03:30.952Z,988.26
2018-01-04T12:04:29.320Z,988.24
2018-01-04T12:05:30.972Z,988.25
2018-01-04T12:06:31.184Z,988.24
2018-01-04T12:07:30.530Z,988.25
2018-01-04T12:08:31.075Z,988.24
2018-01-04T12:09:30.480Z,988.17
2018-01-04T12:10:30.650Z,988.14
2018-01-04T12:11:31.413Z,988.07
2018-01-04T12:12:30.816Z,988.14
2018-01-04T12:13:31.248Z,988.05
2018-01-04T12:14:31.101Z,988.06
2018-01-04T12:15:30.791Z,988.06
2018-01-04T12:16:29.420Z,988.03
2018-01-04T12:17:30.736Z,987.97
2018-01-04T12:18:31.375Z,987.96
2018-01-04T12:19:30.906Z,988.02
2018-01-04T12:20:31.203Z,987.97
2018-01-04T12:21:30.574Z,987.91
2018-01-04T12:22:30.830Z,987.89
2018-01-04T12:23:31.456Z,987.88
2018-01-04T12:24:30.431Z,987.81
2018-01-04T12:25:31.267Z,987.78
2018-01-04T12:26:30.568Z,987.75
2018-01-04T12:27:29.965Z,987.74
2018-01-04T12:28:30.440Z,987.71
2018-01-04T12:29:29.959Z,987.72
2018-01-04T12:30:30.488Z,987.75
2018-01-04T12:31:29.826Z,987.7
2018-01-04T12:32:30.406Z,987.67
2018-01-04T12:33:30.021Z,987.71
2018-01-04T12:34:30.371Z,987.67
2018-01-04T12:35:30.002Z,987.68
2018-01-04T12:36:30.428Z,987.74
2018-01-04T12:37:30.416Z,987.75
2018-01-04T12:38:30.513Z,987.72
2018-01-04T12:39:30.243Z,987.65
2018-01-04T12:40:30.710Z,987.57
2018-01-04T12:41:30.251Z,987.51
2018-01-04T12:42:30.038Z,987.52
2018-01-04T12:43:30.384Z,987.49
2018-01-04T12:44:29.747Z,987.45
2018-01-04T12:45:30.204Z,987.42
2018-01-04T12:46:30.544Z,987.39
2018-01-04T12:47:29.859Z,987.42
2018-01-04T12:48:29.075Z,987.35
2018-01-04T12:49:29.483Z,987.33
2018-01-04T12:50:29.021Z,987.25
2018-01-04T12:51:29.451Z,987.21
2018-01-04T12:52:29.829Z,987.26
2018-01-04T12:53:29.600Z,987.19
2018-01-04T12:54:29.108Z,987.19
2018-01-04T12:55:29.496Z,987.12
2018-01-04T12:56:29.709Z,987.02
2018-01-04T12:57:29.272Z,986.96
2018-01-04T12:58:29.740Z,987.06
2018-01-04T12:59:29.608Z,987.06
2018-01-04T13:00:28.945Z,987.07
2018-01-04T13:01:29.106Z,987.03
2018-01-04T13:02:29.413Z,987.09
2018-01-04T13:03:29.085Z,987.11
2018-01-04T13:04:29.659Z,987.17
2018-01-04T13:05:31.244Z,987.11
2018-01-04T13:06:29.721Z,987.12
2018-01-04T13:07:29.006Z,987.09
2018-01-04T13:08:29.668Z,987.05
2018-01-04T13:09:29.128Z,987.04
2018-01-04T13:10:29.544Z,987.05
2018-01-04T13:11:29.921Z,987.05
2018-01-04T13:12:29.472Z,987.02
2018-01-04T13:13:28.897Z,987.02
2018-01-04T13:14:29.714Z,987.04
2018-01-04T13:15:29.095Z,987
2018-01-04T13:16:29.494Z,987
2018-01-04T13:17:29.747Z,987
2018-01-04T13:18:29.527Z,986.96
2018-01-04T13:19:29.959Z,986.93
2018-01-04T13:20:30.465Z,986.93
2018-01-04T13:21:29.873Z,986.94
2018-01-04T13:22:30.562Z,986.94
2018-01-04T13:23:29.973Z,986.93
2018-01-04T13:24:29.864Z,986.89
2018-01-04T13:25:30.725Z,986.88
2018-01-04T13:26:29.845Z,986.89
2018-01-04T13:27:30.096Z,986.93
2018-01-04T13:28:29.459Z,986.92
2018-01-04T13:29:30.082Z,986.86
2018-01-04T13:30:30.474Z,986.84
2018-01-04T13:31:30.008Z,986.86
2018-01-04T13:32:30.282Z,986.78
2018-01-04T13:33:29.515Z,986.78
2018-01-04T13:34:29.833Z,986.79
2018-01-04T13:35:30.252Z,986.76
2018-01-04T13:36:29.969Z,986.76
2018-01-04T13:37:30.420Z,986.75
2018-01-04T13:38:29.813Z,986.73
2018-01-04T13:39:30.229Z,986.76
2018-01-04T13:40:29.660Z,986.74
2018-01-04T13:41:30.040Z,986.66
2018-01-04T13:42:29.680Z,986.63
2018-01-04T13:43:30.232Z,986.62
2018-01-04T13:44:29.666Z,986.62
2018-01-04T13:45:29.823Z,986.62
2018-01-04T13:46:29.952Z,986.57
2018-01-04T13:47:30.182Z,986.58
2018-01-04T13:48:29.677Z,986.62
2018-01-04T13:49:30.281Z,986.59
2018-01-04T13:50:30.523Z,986.61
2018-01-04T13:51:30.099Z,986.62
2018-01-04T13:52:30.627Z,986.57
2018-01-04T13:53:30.002Z,986.59
2018-01-04T13:54:29.841Z,986.63
2018-01-04T13:55:30.033Z,986.6
2018-01-04T13:56:30.378Z,986.56
2018-01-04T13:57:29.726Z,986.54
2018-01-04T14:00:29.950Z,986.48
2018-01-04T14:01:30.133Z,986.5
2018-01-04T14:02:29.550Z,986.46
2018-01-04T14:03:29.797Z,986.45
2018-01-04T14:04:30.504Z,986.47
2018-01-04T14:05:30.239Z,986.43
2018-01-04T14:06:30.552Z,986.45